createdAt,value
2022-09-02T00:02:21.191Z,20.17
2022-09-02T00:04:49.332Z,20.13
2022-09-02T00:07:17.282Z,20.08
2022-09-02T00:09:45.230Z,20.05
2022-09-02T00:12:13.143Z,20.02
2022-09-02T00:14:43.095Z,20.00
2022-09-02T00:17:11.044Z,20.00
2022-09-02T00:19:40.499Z,19.99
2022-09-02T00:22:08.612Z,19.98
2022-09-02T00:24:36.850Z,20.00
2022-09-02T00:27:04.944Z,20.00
2022-09-02T00:29:33.213Z,20.00
2022-09-02T00:32:01.499Z,20.00
2022-09-02T00:34:29.473Z,20.03
2022-09-02T00:36:58.930Z,20.05
2022-09-02T00:39:27.292Z,20.04
2022-09-02T00:41:55.705Z,20.06
2022-09-02T00:44:23.733Z,20.05
2022-09-02T00:46:51.770Z,20.04
2022-09-02T00:49:29.483Z,20.04
2022-09-02T00:52:04.273Z,20.01
2022-09-02T00:54:35.602Z,20.00
2022-09-02T00:57:08.426Z,19.99
2022-09-02T00:59:45.063Z,19.97
2022-09-02T01:02:13.771Z,19.97
2022-09-02T01:04:43.130Z,19.95
2022-09-02T01:07:12.611Z,19.95
2022-09-02T01:09:40.943Z,19.95
2022-09-02T01:12:12.711Z,19.95
2022-09-02T01:14:40.761Z,19.95
2022-09-02T01:17:08.852Z,19.93
2022-09-02T01:19:40.440Z,19.91
2022-09-02T01:22:20.373Z,19.91
2022-09-02T01:24:48.776Z,19.88
2022-09-02T01:27:18.439Z,19.87
2022-09-02T01:29:47.348Z,19.84
2022-09-02T01:32:15.312Z,19.81
2022-09-02T01:34:43.455Z,19.79
2022-09-02T01:37:12.344Z,19.78
2022-09-02T01:39:41.802Z,19.75
2022-09-02T01:42:10.096Z,19.74
2022-09-02T01:44:44.059Z,19.69
2022-09-02T01:47:12.328Z,19.64
2022-09-02T01:49:40.690Z,19.58
2022-09-02T01:52:09.873Z,19.51
2022-09-02T01:54:37.862Z,19.47
2022-09-02T01:57:07.417Z,19.42
2022-09-02T01:59:35.432Z,19.37
2022-09-02T02:02:03.458Z,19.31
2022-09-02T02:04:31.551Z,19.26
2022-09-02T02:06:59.605Z,19.21
2022-09-02T02:09:28.051Z,19.17
2022-09-02T02:11:55.978Z,19.12
2022-09-02T02:14:25.443Z,19.07
2022-09-02T02:16:53.426Z,19.03
2022-09-02T02:19:21.334Z,18.97
2022-09-02T02:21:49.651Z,18.93
2022-09-02T02:24:17.597Z,18.90
2022-09-02T02:26:45.682Z,18.87
2022-09-02T02:29:13.947Z,18.85
2022-09-02T02:31:44.029Z,18.80
2022-09-02T02:34:12.251Z,18.77
2022-09-02T02:36:41.223Z,18.75
2022-09-02T02:39:11.685Z,18.71
2022-09-02T02:41:41.391Z,18.69
2022-09-02T02:44:13.018Z,18.66
2022-09-02T02:46:41.066Z,18.65
2022-09-02T02:49:13.522Z,18.61
2022-09-02T02:51:41.542Z,18.58
2022-09-02T02:54:10.424Z,18.55
2022-09-02T02:56:38.376Z,18.53
2022-09-02T02:59:06.377Z,18.50
2022-09-02T03:01:34.789Z,18.48
2022-09-02T03:04:02.886Z,18.44
2022-09-02T03:06:32.338Z,18.41
2022-09-02T03:09:00.649Z,18.39
2022-09-02T03:11:28.940Z,18.36
2022-09-02T03:13:57.124Z,18.32
2022-09-02T03:16:25.070Z,18.31
2022-09-02T03:18:53.294Z,18.29
2022-09-02T03:21:21.396Z,18.29
2022-09-02T03:23:50.801Z,18.30
2022-09-02T03:26:23.464Z,18.31
2022-09-02T03:28:52.007Z,18.33
2022-09-02T03:31:22.485Z,18.33
2022-09-02T03:33:50.966Z,18.34
2022-09-02T03:36:24.157Z,18.34
2022-09-02T03:38:53.971Z,18.33
2022-09-02T03:41:22.100Z,18.32
2022-09-02T03:43:50.501Z,18.29
2022-09-02T03:46:19.794Z,18.27
2022-09-02T03:48:50.353Z,18.25
2022-09-02T03:51:18.600Z,18.25
2022-09-02T03:53:46.757Z,18.25
2022-09-02T03:56:17.008Z,18.24
2022-09-02T03:58:46.738Z,18.23
2022-09-02T04:01:16.597Z,18.24
2022-09-02T04:03:44.911Z,18.22
2022-09-02T04:06:14.078Z,18.18
2022-09-02T04:08:42.457Z,18.15
2022-09-02T04:11:11.577Z,18.11
2022-09-02T04:13:41.010Z,18.07
2022-09-02T04:16:10.497Z,18.04
2022-09-02T04:18:38.691Z,18.02
2022-09-02T04:21:07.188Z,18.00
2022-09-02T04:23:35.644Z,17.98
2022-09-02T04:26:06.694Z,17.96
2022-09-02T04:28:34.857Z,17.94
2022-09-02T04:31:07.115Z,17.95
2022-09-02T04:33:35.270Z,17.94
2022-09-02T04:36:06.123Z,17.96
2022-09-02T04:38:34.033Z,17.97
2022-09-02T04:41:02.250Z,18.00
2022-09-02T04:43:30.169Z,18.01
2022-09-02T04:45:58.199Z,18.01
2022-09-02T04:48:27.546Z,18.00
2022-09-02T04:50:55.485Z,17.99
2022-09-02T04:53:23.507Z,18.00
2022-09-02T04:55:54.798Z,17.98
2022-09-02T04:58:26.007Z,17.95
2022-09-02T05:00:53.970Z,17.94
2022-09-02T05:03:21.942Z,17.91
2022-09-02T05:05:59.709Z,17.88
2022-09-02T05:08:27.732Z,17.82
2022-09-02T05:10:55.705Z,17.79
2022-09-02T05:13:26.025Z,17.75
2022-09-02T05:15:54.771Z,17.72
2022-09-02T05:18:23.059Z,17.70
2022-09-02T05:20:52.404Z,17.65
2022-09-02T05:23:20.396Z,17.64
2022-09-02T05:25:48.725Z,17.61
2022-09-02T05:28:16.836Z,17.61
2022-09-02T05:30:45.142Z,17.61
2022-09-02T05:33:13.503Z,17.62
2022-09-02T05:35:54.455Z,17.60
2022-09-02T05:38:22.332Z,17.61
2022-09-02T05:40:50.285Z,17.59
2022-09-02T05:43:18.361Z,17.56
2022-09-02T05:45:47.538Z,17.52
2022-09-02T05:48:32.827Z,17.51
2022-09-02T05:51:05.318Z,17.50
2022-09-02T05:53:33.748Z,17.49
2022-09-02T05:56:05.437Z,17.46
2022-09-02T05:58:33.343Z,17.45
2022-09-02T06:01:01.349Z,17.44
2022-09-02T06:03:29.287Z,17.47
2022-09-02T06:06:00.557Z,17.48
2022-09-02T06:08:32.807Z,17.51
2022-09-02T06:11:01.902Z,17.55
2022-09-02T06:13:30.463Z,17.59
2022-09-02T06:15:59.166Z,17.65
2022-09-02T06:18:27.317Z,17.71
2022-09-02T06:20:55.857Z,17.79
2022-09-02T06:23:24.094Z,17.87
2022-09-02T06:25:54.542Z,17.92
2022-09-02T06:28:22.956Z,17.96
2022-09-02T06:30:52.534Z,18.02
2022-09-02T06:33:20.983Z,18.07
2022-09-02T06:35:49.456Z,18.11
2022-09-02T06:38:19.956Z,18.17
2022-09-02T06:40:50.840Z,18.22
2022-09-02T06:43:20.652Z,18.27
2022-09-02T06:45:49.024Z,18.30
2022-09-02T06:48:22.249Z,18.34
2022-09-02T06:50:52.451Z,18.37
2022-09-02T06:53:20.556Z,18.37
2022-09-02T06:55:48.549Z,18.38
2022-09-02T06:58:16.850Z,18.41
2022-09-02T07:00:46.247Z,18.44
2022-09-02T07:03:32.442Z,18.48
2022-09-02T07:06:02.534Z,18.57
2022-09-02T07:08:30.893Z,18.64
2022-09-02T07:10:59.221Z,18.69
2022-09-02T07:13:27.464Z,18.76
2022-09-02T07:15:56.927Z,18.79
2022-09-02T07:18:24.987Z,18.83
2022-09-02T07:20:54.432Z,18.89
2022-09-02T07:23:22.552Z,18.96
2022-09-02T07:25:50.613Z,19.06
2022-09-02T07:28:18.801Z,19.16
2022-09-02T07:30:46.778Z,19.26
2022-09-02T07:33:17.686Z,19.38
2022-09-02T07:35:45.888Z,19.47
2022-09-02T07:38:15.073Z,19.55
2022-09-02T07:40:44.340Z,19.65
2022-09-02T07:43:12.780Z,19.72
2022-09-02T07:45:43.639Z,19.78
2022-09-02T07:48:11.580Z,19.83
2022-09-02T07:50:40.944Z,19.86
2022-09-02T07:53:09.140Z,19.89
2022-09-02T07:55:41.127Z,19.90
2022-09-02T07:58:09.216Z,19.92
2022-09-02T08:00:37.747Z,19.91
2022-09-02T08:05:37.103Z,19.99
2022-09-02T08:08:08.247Z,20.01
2022-09-02T08:10:37.144Z,20.03
2022-09-02T08:13:06.787Z,20.07
2022-09-02T08:15:36.231Z,20.10
2022-09-02T08:18:05.568Z,20.11
2022-09-02T08:20:34.315Z,20.13
2022-09-02T08:23:11.835Z,20.11
2022-09-02T08:25:47.839Z,20.16
2022-09-02T08:28:16.040Z,20.19
2022-09-02T08:30:44.002Z,20.23
2022-09-02T08:33:11.953Z,20.26
2022-09-02T08:35:40.444Z,20.30
2022-09-02T08:38:08.415Z,20.37
2022-09-02T08:40:39.108Z,20.42
2022-09-02T08:43:26.279Z,20.51
2022-09-02T08:45:56.347Z,20.55
2022-09-02T08:48:34.171Z,20.48
2022-09-02T08:51:06.703Z,20.43
2022-09-02T08:53:42.065Z,20.46
2022-09-02T08:56:13.166Z,20.54
2022-09-02T08:58:45.028Z,20.63
2022-09-02T09:01:22.270Z,20.74
2022-09-02T09:04:10.598Z,20.85
2022-09-02T09:06:47.845Z,20.92
2022-09-02T09:09:26.149Z,20.94
2022-09-02T09:12:10.086Z,20.98
2022-09-02T09:14:49.452Z,21.09
2022-09-02T09:17:27.508Z,21.19
2022-09-02T09:20:00.599Z,21.27
2022-09-02T09:22:32.988Z,21.36
2022-09-02T09:25:01.626Z,21.53
2022-09-02T09:27:29.529Z,21.64
2022-09-02T09:29:58.876Z,21.68
2022-09-02T09:32:31.171Z,21.71
2022-09-02T09:35:03.196Z,21.76
2022-09-02T09:37:36.292Z,21.77
2022-09-02T09:40:38.391Z,21.77
2022-09-02T09:43:24.511Z,21.84
2022-09-02T09:45:54.488Z,21.90
2022-09-02T09:48:27.704Z,21.99
2022-09-02T09:51:14.118Z,22.05
2022-09-02T09:53:42.274Z,22.07
2022-09-02T09:56:30.661Z,22.11
2022-09-02T09:58:58.776Z,22.15
2022-09-02T10:01:31.427Z,22.08
2022-09-02T10:04:04.952Z,22.01
2022-09-02T10:06:40.405Z,21.98
2022-09-02T10:09:31.054Z,21.97
2022-09-02T10:12:00.613Z,21.99
2022-09-02T10:14:35.969Z,22.07
2022-09-02T10:17:40.294Z,22.19
2022-09-02T10:20:15.641Z,22.25
2022-09-02T10:23:12.411Z,22.26
2022-09-02T10:25:53.256Z,22.23
2022-09-02T10:28:44.897Z,22.17
2022-09-02T10:31:23.754Z,22.18
2022-09-02T10:34:03.596Z,22.29
2022-09-02T10:36:38.869Z,22.43
2022-09-02T10:39:20.539Z,22.63
2022-09-02T10:41:48.923Z,22.81
2022-09-02T10:44:31.418Z,22.90
2022-09-02T10:47:03.787Z,22.96
2022-09-02T10:49:52.224Z,23.02
2022-09-02T10:52:35.945Z,23.13
2022-09-02T10:55:14.502Z,23.28
2022-09-02T10:57:49.212Z,23.36
2022-09-02T11:00:19.292Z,23.44
2022-09-02T11:02:50.917Z,23.51
2022-09-02T11:05:24.656Z,23.55
2022-09-02T11:07:59.387Z,23.58
2022-09-02T11:10:30.378Z,23.70
2022-09-02T11:13:03.890Z,23.86
2022-09-02T11:15:44.073Z,24.00
2022-09-02T11:18:18.570Z,24.12
2022-09-02T11:20:54.366Z,24.25
2022-09-02T11:23:31.707Z,24.35
2022-09-02T11:26:05.730Z,24.43
2022-09-02T11:28:43.527Z,24.48
2022-09-02T11:31:18.666Z,24.55
2022-09-02T11:33:54.113Z,24.60
2022-09-02T11:36:25.345Z,24.44
2022-09-02T11:38:58.604Z,24.35
2022-09-02T11:41:40.621Z,24.40
2022-09-02T11:44:29.396Z,24.66
2022-09-02T11:47:10.390Z,24.91
2022-09-02T11:49:53.991Z,25.02
2022-09-02T11:52:46.565Z,25.12
2022-09-02T11:55:18.786Z,25.16
2022-09-02T11:57:54.304Z,25.26
2022-09-02T12:00:31.675Z,25.42
2022-09-02T12:03:37.928Z,25.67
2022-09-02T12:06:11.479Z,25.63
2022-09-02T12:09:06.005Z,25.46
2022-09-02T12:11:55.184Z,25.67
2022-09-02T12:15:04.865Z,25.98
2022-09-02T12:17:59.218Z,26.23
2022-09-02T12:21:15.995Z,26.58
2022-09-02T12:24:22.562Z,26.96
2022-09-02T12:27:24.509Z,27.14
2022-09-02T12:29:53.361Z,26.98
2022-09-02T12:33:05.086Z,26.73
2022-09-02T12:35:52.770Z,26.77
2022-09-02T12:38:32.726Z,26.99
2022-09-02T12:41:27.808Z,26.80
2022-09-02T12:44:17.528Z,26.71
2022-09-02T12:46:55.522Z,26.85
2022-09-02T12:49:42.151Z,27.07
2022-09-02T12:52:11.869Z,27.29
2022-09-02T12:54:49.106Z,27.44
2022-09-02T12:57:19.946Z,27.65
2022-09-02T12:59:49.102Z,27.77
2022-09-02T13:02:42.461Z,27.81
2022-09-02T13:05:23.083Z,27.85
2022-09-02T13:08:35.528Z,28.03
2022-09-02T13:11:37.680Z,28.28
2022-09-02T13:14:31.028Z,28.59
2022-09-02T13:17:35.681Z,28.66
2022-09-02T13:20:44.839Z,28.71
2022-09-02T13:23:38.142Z,28.63
2022-09-02T13:26:47.745Z,28.46
2022-09-02T13:29:43.439Z,28.30
2022-09-02T13:32:17.108Z,28.51
2022-09-02T13:34:47.384Z,28.76
2022-09-02T13:37:32.682Z,28.80
2022-09-02T13:40:06.070Z,28.47
2022-09-02T13:42:34.090Z,28.03
2022-09-02T13:45:18.676Z,27.65
2022-09-02T13:47:49.510Z,27.42
2022-09-02T13:50:21.881Z,27.41
2022-09-02T13:55:49.142Z,27.00
2022-09-02T13:58:25.719Z,26.80
2022-09-02T14:01:01.618Z,26.55
2022-09-02T14:03:32.809Z,26.33
2022-09-02T14:06:02.056Z,26.09
2022-09-02T14:08:32.697Z,25.92
2022-09-02T14:11:07.362Z,25.87
2022-09-02T14:13:36.858Z,26.08
2022-09-02T14:16:33.622Z,26.21
2022-09-02T14:19:06.798Z,26.25
2022-09-02T14:21:36.342Z,26.21
2022-09-02T14:24:05.059Z,26.19
2022-09-02T14:26:38.020Z,26.21
2022-09-02T14:29:07.977Z,26.22
2022-09-02T14:31:38.042Z,26.18
2022-09-02T14:34:26.084Z,26.12
2022-09-02T14:36:54.206Z,25.97
2022-09-02T14:39:22.258Z,25.85
2022-09-02T14:41:52.730Z,25.75
2022-09-02T14:44:26.040Z,25.65
2022-09-02T14:46:58.574Z,25.55
2022-09-02T14:49:29.637Z,25.47
2022-09-02T14:52:00.190Z,25.45
2022-09-02T14:54:39.826Z,25.42
2022-09-02T14:57:20.815Z,25.34
2022-09-02T14:59:48.951Z,25.20
2022-09-02T15:02:30.237Z,25.02
2022-09-02T15:04:59.799Z,24.90
2022-09-02T15:07:28.039Z,24.75
2022-09-02T15:09:56.207Z,24.63
2022-09-02T15:12:26.772Z,24.49
2022-09-02T15:14:55.184Z,24.38
2022-09-02T15:17:25.110Z,24.28
2022-09-02T15:19:53.478Z,24.12
2022-09-02T15:22:21.711Z,23.96
2022-09-02T15:24:51.031Z,23.82
2022-09-02T15:27:21.650Z,23.69
2022-09-02T15:29:49.966Z,23.57
2022-09-02T15:32:18.029Z,23.49
2022-09-02T15:34:47.394Z,23.41
2022-09-02T15:37:15.403Z,23.31
2022-09-02T15:39:43.622Z,23.11
2022-09-02T15:42:11.737Z,22.80
2022-09-02T15:44:39.732Z,22.50
2022-09-02T15:47:07.702Z,22.21
2022-09-02T15:49:35.699Z,21.96
2022-09-02T15:52:06.119Z,21.69
2022-09-02T15:54:34.067Z,21.36
2022-09-02T15:57:02.033Z,20.92
2022-09-02T15:59:30.041Z,20.49
2022-09-02T16:01:58.666Z,20.15
2022-09-02T16:04:28.275Z,19.97
2022-09-02T16:06:56.348Z,19.87
2022-09-02T16:09:25.812Z,19.74
2022-09-02T16:11:56.141Z,19.64
2022-09-02T16:14:25.813Z,19.60
2022-09-02T16:16:58.130Z,19.63
2022-09-02T16:19:30.251Z,19.66
2022-09-02T16:21:58.807Z,19.76
2022-09-02T16:24:28.538Z,19.86
2022-09-02T16:26:56.501Z,19.99
2022-09-02T16:29:28.218Z,20.07
2022-09-02T16:32:14.246Z,20.13
2022-09-02T16:34:45.417Z,20.22
2022-09-02T16:37:13.328Z,20.31
2022-09-02T16:39:43.172Z,20.41
2022-09-02T16:42:11.134Z,20.54
2022-09-02T16:44:41.534Z,20.68
2022-09-02T16:47:09.579Z,20.85
2022-09-02T16:49:41.699Z,21.00
2022-09-02T16:52:09.678Z,21.06
2022-09-02T16:54:40.836Z,21.08
2022-09-02T16:57:11.013Z,21.11
2022-09-02T16:59:38.965Z,21.10
2022-09-02T17:02:06.968Z,21.07
2022-09-02T17:04:34.940Z,21.08
2022-09-02T17:07:02.947Z,21.10
2022-09-02T17:09:31.365Z,21.11
2022-09-02T17:11:59.293Z,21.11
2022-09-02T17:14:28.670Z,21.25
2022-09-02T17:16:56.684Z,21.43
2022-09-02T17:19:29.847Z,21.56
2022-09-02T17:21:59.921Z,21.55
2022-09-02T17:24:30.766Z,21.53
2022-09-02T17:27:00.385Z,21.48
2022-09-02T17:29:48.589Z,21.43
2022-09-02T17:32:17.279Z,21.35
2022-09-02T17:34:45.381Z,21.28
2022-09-02T17:37:19.962Z,21.22
2022-09-02T17:39:48.613Z,21.21
2022-09-02T17:42:18.809Z,21.21
2022-09-02T17:44:50.481Z,21.18
2022-09-02T17:47:20.484Z,21.17
2022-09-02T17:49:49.732Z,21.13
2022-09-02T17:52:20.116Z,21.08
2022-09-02T17:54:50.290Z,21.05
2022-09-02T17:57:42.455Z,21.03
2022-09-02T18:00:14.664Z,20.99
2022-09-02T18:03:09.550Z,20.95
2022-09-02T18:05:52.899Z,20.91
2022-09-02T18:08:33.131Z,20.89
2022-09-02T18:11:05.267Z,20.83
2022-09-02T18:13:41.002Z,20.79
2022-09-02T18:16:29.611Z,20.76
2022-09-02T18:19:09.059Z,20.72
2022-09-02T18:21:47.827Z,20.66
2022-09-02T18:24:26.123Z,20.62
2022-09-02T18:27:03.834Z,20.61
2022-09-02T18:29:46.579Z,20.62
2022-09-02T18:32:28.834Z,20.64
2022-09-02T18:35:12.570Z,20.64
2022-09-02T18:37:48.146Z,20.61
2022-09-02T18:40:27.782Z,20.59
2022-09-02T18:43:09.150Z,20.57
2022-09-02T18:45:47.892Z,20.55
2022-09-02T18:48:20.177Z,20.53
2022-09-02T18:50:53.585Z,20.52
2022-09-02T18:53:24.052Z,20.50
2022-09-02T18:55:54.184Z,20.51
2022-09-02T18:58:34.360Z,20.50
2022-09-02T19:01:08.802Z,20.50
2022-09-02T19:03:39.441Z,20.49
2022-09-02T19:06:11.515Z,20.49
2022-09-02T19:08:38.944Z,20.48
2022-09-02T19:11:09.514Z,20.46
2022-09-02T19:13:46.481Z,20.42
2022-09-02T19:16:16.674Z,20.36
2022-09-02T19:18:46.418Z,20.32
2022-09-02T19:21:18.957Z,20.29
2022-09-02T19:23:49.223Z,20.27
2022-09-02T19:26:17.991Z,20.25
2022-09-02T19:28:47.109Z,20.22
2022-09-02T19:31:21.051Z,20.19
2022-09-02T19:33:52.897Z,20.17
2022-09-02T19:36:22.375Z,20.15
2022-09-02T19:38:50.533Z,20.14
2022-09-02T19:41:18.503Z,20.12
2022-09-02T19:43:46.472Z,20.11
2022-09-02T19:46:27.938Z,20.11
2022-09-02T19:49:04.946Z,20.12
2022-09-02T19:51:32.947Z,20.11
2022-09-02T19:54:01.098Z,20.10
2022-09-02T19:56:29.026Z,20.08
2022-09-02T19:58:57.072Z,20.08
2022-09-02T20:01:25.257Z,20.07
2022-09-02T20:03:53.342Z,20.07
2022-09-02T20:06:22.875Z,20.07
2022-09-02T20:08:51.259Z,20.07
2022-09-02T20:11:19.240Z,20.09
2022-09-02T20:13:47.201Z,20.08
2022-09-02T20:16:20.336Z,20.02
2022-09-02T20:18:49.480Z,20.01
2022-09-02T20:21:22.584Z,19.96
2022-09-02T20:23:53.839Z,19.90
2022-09-02T20:26:36.701Z,19.85
2022-09-02T20:29:37.561Z,19.83
2022-09-02T20:32:15.456Z,19.81
2022-09-02T20:35:02.568Z,19.81
2022-09-02T20:37:41.087Z,19.81
2022-09-02T20:40:27.077Z,19.78
2022-09-02T20:43:18.152Z,19.76
2022-09-02T20:45:55.510Z,19.74
2022-09-02T20:48:48.430Z,19.70
2022-09-02T20:51:22.984Z,19.66
2022-09-02T20:54:12.469Z,19.66
2022-09-02T20:56:51.602Z,19.65
2022-09-02T20:59:28.016Z,19.63
2022-09-02T21:02:01.990Z,19.63
2022-09-02T21:04:36.082Z,19.60
2022-09-02T21:07:09.288Z,19.56
2022-09-02T21:09:43.686Z,19.53
2022-09-02T21:12:22.162Z,19.50
2022-09-02T21:14:56.988Z,19.47
2022-09-02T21:17:37.739Z,19.44
2022-09-02T21:20:14.382Z,19.39
2022-09-02T21:22:47.475Z,19.34
2022-09-02T21:25:25.049Z,19.31
2022-09-02T21:27:59.848Z,19.27
2022-09-02T21:30:33.014Z,19.24
2022-09-02T21:33:05.549Z,19.23
2022-09-02T21:35:40.206Z,19.21
2022-09-02T21:38:13.592Z,19.18
2022-09-02T21:41:01.030Z,19.18
2022-09-02T21:43:45.869Z,19.18
2022-09-02T21:46:26.236Z,19.20
2022-09-02T21:49:02.527Z,19.23
2022-09-02T21:51:37.709Z,19.26
2022-09-02T21:54:35.298Z,19.28
2022-09-02T21:57:20.195Z,19.27
2022-09-02T22:00:01.058Z,19.26
2022-09-02T22:02:40.876Z,19.26
2022-09-02T22:05:19.103Z,19.27
2022-09-02T22:07:55.557Z,19.25
2022-09-02T22:10:31.811Z,19.25
2022-09-02T22:13:03.595Z,19.25
2022-09-02T22:15:56.598Z,19.25
2022-09-02T22:18:35.010Z,19.27
2022-09-02T22:21:09.758Z,19.26
2022-09-02T22:23:38.276Z,19.28
2022-09-02T22:26:31.424Z,19.28
2022-09-02T22:29:04.039Z,19.27
2022-09-02T22:31:36.108Z,19.26
2022-09-02T22:34:08.842Z,19.27
2022-09-02T22:36:49.030Z,19.27
2022-09-02T22:39:17.662Z,19.28
2022-09-02T22:41:53.960Z,19.27
2022-09-02T22:44:52.294Z,19.25
2022-09-02T22:47:39.684Z,19.22
2022-09-02T22:50:29.869Z,19.23
2022-09-02T22:52:58.018Z,19.25
2022-09-02T22:55:42.647Z,19.26
2022-09-02T22:58:21.998Z,19.26
2022-09-02T23:01:02.125Z,19.25
2022-09-02T23:03:43.886Z,19.24
2022-09-02T23:06:21.011Z,19.23
2022-09-02T23:08:49.349Z,19.21
2022-09-02T23:11:28.200Z,19.19
2022-09-02T23:14:10.573Z,19.18
2022-09-02T23:17:03.739Z,19.16
2022-09-02T23:19:46.043Z,19.15
2022-09-02T23:22:27.115Z,19.13
2022-09-02T23:25:05.914Z,19.09
2022-09-02T23:27:45.058Z,19.09
2022-09-02T23:30:14.899Z,19.08
2022-09-02T23:33:14.818Z,19.10
2022-09-02T23:35:52.078Z,19.09
2022-09-02T23:38:46.931Z,19.08
2022-09-02T23:41:18.003Z,19.08
2022-09-02T23:43:46.619Z,19.07
2022-09-02T23:46:23.252Z,19.06
2022-09-02T23:48:58.573Z,19.09
2022-09-02T23:51:39.441Z,19.09
2022-09-02T23:54:34.631Z,19.10
2022-09-02T23:57:17.310Z,19.06
